Gum Branch, Georgia
Current Conditions -  °F | °C
As of 9:53 PM on Sunday 21 Dec 2014 (Local Time) from KLHW Reporting Station
Overcast Overcast  
Wind Chill: 45°   Ceiling: 400
Heat Index: 48°   Visibility: 10mi
Dew Point: 46°   Wind: 8mph
Humidity: 93%   Direction: 20°NNE
Pressure: 30.06"   Gusts: NA
Location:  31.9224°N, 81.6243°W
Report Text: KLHW 220253Z AUTO 02007KT 10SM BKN004 OVC030 09/08 A3006 RMK AO2 RAE0229DZB0209E0213
Loading
Personal Weather Stations






























Interactive Weather Map New forecast layout! Learn more

10-Day Weather Forecast

Advertisements
Track Severe Weather on mobile